Flight Track Log - Related Links

Times and Time Zones

All times are in EDT time to prevent confusion due to time zone crossing. See the ASH3732 flight status page for this flight to view local times or setup timezone preferences in your user account.

Time Position Orientation Groundspeed Altitude Reporting Facility
EDT Latitude Longitude Course Direction KTS MPH feet Rate Location/Type
Fri 12:29:50 PM 41.9333 -87.9667 180° South 197 227 3,700  Level Chicago TRACON
Fri 12:31:00 PM 41.7111 -87.7073 159° South  Level Estimated
Fri 12:31:53 PM 41.8175 -87.9783 184° South 253 291 6,300  Level Chicago Center
Fri 12:32:00 PM 41.6209 -87.6412 153° Southeast  Level Estimated
Fri 12:32:55 PM 41.7575 -87.9147 142° Southeast 273 314 9,500  Level Chicago Center
Fri 12:33:00 PM 41.5212 -87.6074 166° South  Level FlightAware Approximate
Fri 12:33:57 PM 41.6942 -87.8497 143° Southeast 284 327 12,700  Level Chicago Center
Fri 12:34:00 PM 41.4315 -87.5402 166° South  Level Estimated
Fri 12:34:58 PM 41.6231 -87.7767 142° Southeast 327 376 14,100  Level Chicago Center
Fri 12:35:00 PM 41.3593 -87.4862 180° South  Level Estimated
Fri 12:36:00 PM 41.5433 -87.6944 142° Southeast 358 412 16,500  Level Chicago Center
Fri 12:37:02 PM 41.4622 -87.6089 142° Southeast 368 423 18,700 2,112 Climbing Chicago Center
Fri 12:38:05 PM 41.3439 -87.5581 162° South 380 437 20,900 1,104 Climbing Chicago Center
Fri 12:39:07 PM 41.2319 -87.5392 173° South 397 457 21,000 48 Climbing Chicago Center
Fri 12:40:09 PM 41.1169 -87.5111 170° South 417 480 21,000  Level Chicago Center
Fri 12:41:11 PM 41.0025 -87.4797 168° South 422 486 21,000  Level Chicago Center
Fri 12:42:13 PM 40.8903 -87.4481 168° South 415 478 21,000  Level Chicago Center
Fri 12:43:15 PM 40.7747 -87.4219 170° South 420 483 21,000  Level Chicago Center
Fri 12:44:16 PM 40.6386 -87.3836 168° South 417 480 21,000  Level Chicago Center
Fri 12:45:18 PM 40.5258 -87.3547 169° South 414 476 21,000 -871 Level Chicago Center
Fri 12:46:20 PM 40.4217 -87.2867 154° Southeast 419 482 19,200 -1,694 Descending Chicago Center
Fri 12:47:22 PM 40.3492 -87.1703 129° Southeast 415 478 17,500 -1,742 Descending Chicago Center
Fri 12:48:24 PM 40.2822 -87.0625 129° Southeast 388 447 15,600 -1,839 Descending Chicago Center
Fri 12:49:26 PM 40.2175 -86.9617 130° Southeast 366 421 13,700 -1,258 Descending Chicago Center
Fri 12:50:28 PM 40.1547 -86.8614 129° Southeast 359 413 13,000 -857 Descending Chicago Center
Fri 12:51:11 PM 40.1017 -86.7836 132° Southeast 356 410 12,200 -865 Descending Indianapolis Center
Fri 12:52:12 PM 40.0389 -86.6931 132° Southeast 345 397 11,500 -1,033 Descending Indianapolis Center
Fri 12:53:13 PM 39.9794 -86.6064 132° Southeast 329 379 10,100 -1,220 Descending Indianapolis Center
Fri 12:54:15 PM 39.9272 -86.5297 132° Southeast 297 342 9,000 -537 Descending Indianapolis Center
Fri 12:55:16 PM 39.8742 -86.4536 132° Southeast 285 328 9,000 -341 Level Indianapolis Center
Fri 12:56:18 PM 39.8247 -86.3714 128° Southeast 293 337 8,300 -1,073 Descending Indianapolis Center
Fri 12:57:19 PM 39.8558 -86.2800 66° East 282 325 6,800 -1,512 Descending Indianapolis Center
Fri 12:58:21 PM 39.8900 -86.1847 65° Northeast 259 298 5,200 -1,756 Descending Indianapolis Center
Fri 12:59:22 PM 39.8417 -86.1544 154° Southeast 226 260 3,200 -1,122 Descending Indianapolis Center
Fri 01:00:24 PM 39.7967 -86.1811 204° Southwest 199 229 2,900 -537 Descending Indianapolis Center
Fri 01:01:25 PM 39.7658 -86.2214 225° Southwest 173 199 2,100 -787 Descending Indianapolis Center

Login

Don't have an account? Register now (free) for customized features, flight alerts, and more!